Katl taf. KCVC 110335Z AUTO 00000KT 10SM CLR 18/13 A2989 RMK AO2. No TAF fou...

METAR Charlotte/Douglas International Airport - KCLT/CLT. Charlott

Data at: 0426 UTC 29 Sep 2023. KATL 290352Z 13003KT 10SM BKN250 19/15 A3010 RMK AO2 SLP188 T01890150. KATL 290330Z 2904/3006 08004KT P6SM SCT250. FM291500 08006KT P6SM SKC. FM292000 02004KT P6SM FEW040 SCT250. FM300100 19003KT P6SM SKC.METAR Home. Plot. Data. Board. Info. IDs: Format: Raw Decoded Include TAF. Data at: 1914 UTC 12 Oct 2023. KATL 121852Z 08012G21KT 10SM OVC021 19/14 A2980 RMK AO2 SLP086 T01940144 $. KATL 121730Z 1218/1324 07015G24KT P6SM OVC015.IDs: Format: Raw Decoded Include TAF. Data at: 1011 UTC 07 Oct 2023. KATL 070952Z 32009KT 10SM CLR 16/13 A2998 RMK AO2 SLP147 T01560128 $. KATL 070852Z 32009KT 10SM FEW250 17/14 A2997 RMK AO2 SLP143 T01670144 55002 $. KATL 070752Z 32010KT 10SM FEW100 FEW250 17/16 A2997 RMK AO2 SLP142 T01720156 …HARTSFIELD-JACKSON ATLANTA, GA, United States (KATL) 33-39N 84-26W. Oct 06, 2023 - 01:52 AM EDT / 2023.10.06 0552 UTC. Wind: from the E (090 degrees) at 6 MPH …Format: Raw Decoded Include METAR. Data at: 1725 UTC 11 Oct 2023. Region: TOP. KATL 111548Z 1116/1218 25005KT P6SM SCT150 OVC250. FM112000 19005KT P6SM -RA SCT025 OVC090. FM120100 15007KT P6SM -RA SCT015 OVC030. FM120400 10012KT 6SM -RA BR SCT008 OVC015. KATL 301552Z 10005KT 10SM FEW042 FEW200 28/16 A3019 RMK AO2 SLP215 T02780161 KATL 301538Z 3016/0118 09006KT P6SM SCT050 FM010000 10004KT P6SM SCT080 FM011600 08008KT P6SM SCT060. ... No METAR found for K No TAF found for K. No METAR found for KEWRGSP No TAF found for KEWRGSP. Page loaded: 16:25 …METAR KATL 222252Z 05007KT 10SM FEW055 26/12 A3003 RMK AO2 SLP160 T02610122. The wind is from direction 050° with a speed of 7 kt. Visibility is 10 mi. ... METAR KPDK - Dekalb-Peachtree Airport (16 NM) METAR TAF KMGE - Dobbins Air Reserve Base (17 NM) METAR TAF. 22 September 18:52 LT 3d . This METAR is from …METAR KATL 010652Z 08007KT 10SM BKN250 19/16 A3004 RMK AO2 SLP165 T01890161 $. The wind is from direction 080° with a speed of 7 kt. Visibility is 10 mi. The ceiling, broken or more, is 25,000 ft. The temperature and wind chill are 19 °C.TAF for: KGFK (Grand Forks Intl, ND, US) issued at 0613 UTC 12 Oct 2023: Text: KGFK 120613Z 1206/1306 08009KT P6SM BKN030 : Forecast period: 0600 to 1500 UTC 12 October 2023: Forecast type: FROM: standard forecast or significant change: Winds: from the E (80 degrees) at 10 MPH (9 knots; 4.6 m/s) Visibility:Daily Weather Briefing. Prepared:10/12/23 8:20 PM by: CW. valid for 12 hours. FOR ATC PLANNING PURPOSES. A low pressure system over the Gulf will continue to produce IFR/MVFR conditions over AL/GA/SC, and IFR/LIFR conditions are also possible over NC after 09Z. VFR conditions are expected to continue over TN/VA, except …Acronym Definition; TTAF: Toyota Tsusho Africa (est. 1999; subsidiary of Toyota Tsusho Corporation) TTAF: Through the Fire and Flames (DragonForce song) TTAF: Training …Most recent METAR and TAF reports for KATL (Hartsfield-Jackson Atlanta International Airport). Decode with one click! | METAR Reader, Your Preflight Weather ...NOTE: LAMP data beyond the time of the TAF data is denoted as LAMP in Type and colored magenta. Raw TAF KLAX 122100Z 1221/1324 26011KT P6SM FEW250 FM130200 25006KT P6SM SKC FM130500 VRB03KT P6SM SKC FM130800 09004KT P6SM SCT005 FM131200 09005KT 5SM BR BKN006 FM131600 26005KT P6SM SCT006 FM132000 26012KT P6SM SKC Raw METAR KLAX 122053Z 26011KT 10SM FEW250 23/16 A2973 RMK AO2 SLP068 T02280156 ...NOTE: LAMP data beyond the time of the TAF data is denoted as LAMP in Type and colored magenta. Raw TAF KDAB 101720Z 1018/1118 06009KT P6SM FEW035 SCT150 BKN250 FM110500 VRB03KT P6SM FEW030 SCT140 BKN250 FM111500 07008KT P6SM VCSH SCT025 BKN090 BKN150 Raw METAR KDAB 101753Z 03006KT 10SM FEW035 BKN200 27/17 A2994 RMK AO2 SLP139 T02670167 10272 20183 58016 KDAB 101653Z 05008KT 10SM FEW035 BKN200 ...KATL: Hartsfield - Jackson Atlanta International Airport Atlanta, Georgia, USA: GOING TO ATLANTA? Reserve a Hotel Room: ... TAF; KATL : 122157Z 1222/1324 05015KT P6SM BKN022 OVC030 FM130000 08009KT P6SM SCT025 BKN040 FM130700 07008KT P6SM VCSH SCT008 BKN012 FM131300 08011KT 6SM -RADZ BR BKN008 …Forecast. TAF: KATL 011720Z 0118/0224 08010KT P6SM SCT040 FM020000 08004KT P6SM FEW250 FM021500 08008KT P6SM SCT040. Weather observations and forecasts of more than 4000 airports (METAR and TAF reports). The available stations are represented by yellow and red dots on the map. Hover mouse over dot to see the name of the station.NOTE: LAMP data beyond the time of the TAF data is denoted as LAMP in Type and colored magenta. Raw TAF KATL 291559Z 2916/3018 06006KT P6SM FEW250 FM291800 03008KT P6SM FEW040 SCT250 FM292300 04004KT P6SM SCT050 FM300100 VRB04KT P6SM FEW250 Raw METAR KATL 291652Z 04004KT 10SM FEW038 …Jul 17, 2023 · 5 kt. METAR KATL 150752Z 29005KT 10SM BKN180 BKN250 25/22 A2995 RMK AO2 SLP129 T02500217 $. Easy access to all aviation weather on your mobile phone and tablet. With many features not available on the website, like offline support and a personal airport list. The airport is located at latitude 44.88192 and longitude -93.22197. The airport has 4 runways: 4/22, 12L/30R, 12R/30L and 17/35. The ICAO airport code of this field is KMSP. The local airport ID (FAA LID) of this airport is MSP. The airport's IATA code is MSP. The airport is in the Minneapolis FIR . This aviation weather observation was made ...Visibility: 10 km. Clear sky. TAF: KATL 070930Z 0710/0812 32009KT P6SM SCT100 FM071100 33010G20KT P6SM SKC FM071500 33012G25KT P6SM SKC FM072200 33013KT P6SM SKC FM080100 33009KT P6SM SKC. Weather observations and forecasts of more than 4000 airports (METAR and TAF reports). Format: Raw Decoded Include METAR. Data at: 1011 UTC 09 Oct 2023. RCTP 091000Z 04016G26KT 360V070 9999 -RA SCT007 BKN009 BKN015 24/23 Q1016 WS R05R NOSIG RMK A3001. TAF RCTP 090500Z 0906/1012 04020KT 9999 SCT006 BKN008 BKN015. TEMPO 0906/0912 SCT007 BKN012 BKN025. TEMPO 0918/0924 5000 RA SCT003 …Sep 27, 2023 · ZTL Airspace Summary / KATL TAF For ATC Planning Purposes Only; ZTL Airspace Summary: Scattered showers will continue across southern portions of airspace through this afternoon; cells will move north to northwest at 5-10kts with tops to FL300. Updated at 1735 UTC 03 Oct 2023. NOTE: LAMP data beyond the time of the TAF data is denoted as LAMP in Type and colored magenta. For situational awareness. Not to be used for flight planning purposes. Aviation Weather Center Homepage provides comprehensive user-friendly aviation weather Text products and graphics.Atlanta Hartsfield-Jackson International Airport, (ATL/KATL), United States - View the latest KATL METAR reports to find out the current weather conditions ...Oct 10, 2023 · TAF for: KATL (Atlanta/Hartsfield I, GA, US) issued at 2157 UTC 12 Oct 2023. Text: KATL 122157Z 1222/1324 05015KT P6SM BKN022 OVC030. Forecast period: 2200 UTC 12 October 2023 to 0000 UTC 13 October 2023. Forecast type: FROM: standard forecast or significant change. A METAR (METeorological Aerodrome Report) is an observation and provides information about the current weather. A TAF (Terminal Area Forecast) provides a forecast for a longer period, for example 8, 24 or 36 hours. Both are prepared for aviation and contain weather information that pilots need. This is how you read a METAR.E6B, NavLog Calculator, Weather Reports, METAR, TAF, Wind Components, Instrument Simulator, Weight and Balance, Pressure Altitude, Density Altitude, True Air Speed ...KLAL 211235Z AUTO 01005KT 5SM BR OVC002 22/22 A3001 RMK AO2 T02220222. METAR Board. Radar Display. Forecast Discussion. For situational awareness. Not to be used for flight planning purposes. Aviation Weather Center Homepage provides comprehensive user-friendly aviation weather Text products and graphics. METAR history KATL · Hartsfield-Jackson Atlanta International Recent 2023 2022 2021 2020 2019 2018 2017 2016 2015 2014 2013 2012 2011 2010 2009 2008 2007 Select a date to see all historical METARs of Hartsfield …KATL | Weather Report, METAR, TAF, Airport Data | E6BX. E6BX App is now available. Download Now: Apple Store or Android. Request Failed. TAF. Hover over text to see …katl 122152z 05015g19kt 10sm bkn022 ovc030 19/14 a2983 rmk ao2 slp096 t01940144 $ katl 122157z 1222/1324 05015kt p6sm bkn022 ovc030 fm130000 08009kt p6sm sct025 bkn040 fm130700 07008kt p6sm vcsh sct008 bkn012 fm131300 08011kt 6sm -radz br bkn008 fm132200 08008kt 5sm -radz br ovc006. kceu 122154z auto 09005kt 10sm …Atlanta (KATL) ... Hartsfield–Jackson began with a five-year, rent-free lease on 287 acres that was an abandoned auto racetrack named The Atlanta Speedway. The ...Jul 17, 2023 · 5 kt. METAR KATL 150752Z 29005KT 10SM BKN180 BKN250 25/22 A2995 RMK AO2 SLP129 T02500217 $. Easy access to all aviation weather on your mobile phone and tablet. With many features not available on the website, like offline support and a personal airport list. Also, both the METAR and the TAF—or area forecast if there’s no TAF—are controlling. So, for flights less than an hour both should be checked. Not just any airport qualifies as an alternate per 91.169(c). The standard minimum weather requirement for an alternate is 600-2 if there’s a precision approach available and an 800-2 for a non ...TAF ; NOTAM ; History ; Airport ; Statistics ; Livestream Show on map Embed New ... KATL B) 2309120954 E) ATL TWY SG, SJ, TWY SC BTN TWY SJ1 AND TWY SG CLSD CANCELED September 12, 2023 05:54 - September 15, 2023 05:54 LT KATL · A6496/23. Active. 0.4 NM 6h.KMDW. MDW ATIS INFO N 0453Z. 28006KT 10SM BKN085 16/09 A2991 (TWO NINER NINER ONE) RMK AO2 SLP124. ILS RWY 31C APCH IN USE. LNDG AND DEPG RWYS 31C. NOTAMS... RWY 31R, 13L CLSD, RWY 22R, 4L CLSD, RWY 31L, 13R CLSD. TWY P CLSD BTN TWY G AND TWY T .KATL METAR TAF AREA METARS AREA TAFS 2 SIGMETS KATL. UTC. Hartsfield Jackson Atlanta International Airport Atlanta, Georgia, United States. TAF Report. KATL 030331Z 0304/0406 07006KT P6SM SKC FM031400 09008KT P6SM SKC FM031800 08008KT P6SM FEW050 FM040200 09004KT P6SM SKC. Issued. Oct 03 03:31 UTC.METAR KATL 101352Z 08011KT 10SM SCT250 23/16 A3011 RMK AO2 SLP188 T02280156. ... Dekalb-Peachtree Airport (16 NM) METAR TAF KMGE - Dobbins Air Reserve Base (17 NM) METAR TAF. 10 May 09:52 LT 2mnd . This METAR is from May 10, 2023 09:52. VFR. No warnings ...33.6367, -84.4281. Local time. Oct 25, 2022 01:54. Change. Hartsfield Jackson Atlanta International Airport is a large airport in Fulton County, Georgia, United States. The airport has 5 runways: 8L/26R, 8R/26L, 9L/27R, 9R/27L and 10/28. The ICAO designator of this field is KATL and it's IATA code is ATL. Nearby other airfields are Coleman ...METAR Home. Plot. Data. Board. Info. IDs: Format: Raw Decoded Include TAF. Data at: 0912 UTC 24 Sep 2023. KLAF 240854Z AUTO 08003KT 10SM CLR 11/09 A3001 RMK AO2 SLP159 T01110094 53000. KLAF 240754Z AUTO 09005KT 10SM CLR 12/09 A3000 RMK AO2 SLP156 T01170094.data at: 1735 utc 11 oct 2023. katl 111652z 30004kt 10sm few130 bkn160 ovc200 23/12 a2996 rmk ao2 slp139 virga ohd-alqds t02280122 $ katl 111548z 1116/1218 25005kt p6sm sct150 ovc250 fm112000 19005kt p6sm -ra sct025 ovc090 fm120100 15007kt p6sm -ra sct015 ovc030 fm120400 10012kt 6sm -ra br sct008 ovc015 prob30 1206/1212 2sm -ra br ovc005 fm121300 08013g23kt 6sm br sct008 ovc01533.6367, -84.4281. Local time. Oct 25, 2022 01:54. Change. Hartsfield Jackson Atlanta International Airport is a large airport in Fulton County, Georgia, United States. The airport has 5 runways: 8L/26R, 8R/26L, 9L/27R, 9R/27L and 10/28. The ICAO designator of this field is KATL and it's IATA code is ATL. Nearby other airfields are Coleman ...METAR is also known as Meteorological Terminal Aviation Routine Weather Report or Meteorological Aerodrome Report. 2023/06/29 09:52 KATL 290952Z 01005KT 7SM CLR ...ZTL Airspace Summary / KATL TAF For ATC Planning Purposes Only; ZTL Airspace Summary: Scattered showers will continue across southern portions of airspace through this afternoon; cells will move north to northwest at 5-10kts with tops to FL300.Format: Raw Decoded Include METAR. Data at: 1011 UTC 09 Oct 2023. RCTP 091000Z 04016G26KT 360V070 9999 -RA SCT007 BKN009 BKN015 24/23 Q1016 WS R05R NOSIG RMK A3001. TAF RCTP 090500Z 0906/1012 04020KT 9999 SCT006 BKN008 BKN015. TEMPO 0906/0912 SCT007 BKN012 BKN025. TEMPO 0918/0924 5000 RA SCT003 …KATL (ATLANTA , GA, US) Text: KATL 262347Z 2700/2806 06009KT P6SM VCSH BKN012 BKN020 OVC060 : Forecast period: 0000 to 0500 UTC 27 April 2023 Forecast type: FROM: standard forecast or significant change Winds: from the ENE (60 degrees) at 10 MPH (9 knots; 4.6 m/s) Visibility: 6 or more miles (10+ km) Ceiling: TAF ; NOTAM ; History ; Airport ; Statistics ... KATL B) 2309121537 E) ATL TWY L BTN TWY L10 AND TWY D CLSD CANCELED September 12, 2023 11:37 - September 15, 2023 11: ... Jun 1, 2023 · METAR KATL 010652Z 08007KT 10SM BKN250 19/16 A3004 RMK AO2 SLP165 T01890161 $. The wind is from direction 080° with a speed of 7 kt. Visibility is 10 mi. The ceiling, broken or more, is 25,000 ft. The temperature and wind chill are 19 °C. taf rctp 251100z 2512/2618 05005kt 7000 sct004 bkn007 bkn020 tempo 2512/2518 16005kt 4000 ra br few003 bkn004 bkn020 tempo 2518/2524 24005kt 5000 ra sct005 bkn011 bkn030 tempo 2600/2606 04010kt sct008 bkn015 bkn030 becmg …A METAR (METeorological Aerodrome Report) is an observation and provides information about the current weather. A TAF (Terminal Area Forecast) provides a forecast for a longer period, for example 8, 24 or 36 hours. Both are prepared for aviation and contain weather information that pilots need. A METAR is prepared by a meteorologist or ... taf; katl : 122157z 1222/1324 05015kt p6sm bkn022 ovc030 fm130000 08009kt p6sm sct025 bkn040 fm130700 07008kt p6sm vcsh sct008 bkn012 fm131300 08011kt 6sm -radz br ...cyvr 190300z 25008kt 30sm few240 15/09 a3007 rmk ci1 ci tr slp184 taf cyvr 190240z 1903/2006 26010kt p6sm sct060 becmg 1904/1906 vrb03kt fm190700 09008kt p6sm bkn060 fm191200 10008kt p6sm bkn040 tempo 1912/1920 p6sm -shra bkn020 fm192000 16008kt p6sm bkn040 tempo 1920/2002 p6sm -shra fm200200 11008kt p6sm ovc025 tempo 2002/2006 3sm -dz br sct008 ovc015 rmk nxt fcst by 190600zNOTE: LAMP data beyond the time of the TAF data is denoted as LAMP in Type and colored magenta. Raw TAF. KMSP 210900Z 2109/2212 14006KT P6SM FEW250. FM212000 15010KT P6SM FEW250. Raw METAR.KLAL 211235Z AUTO 01005KT 5SM BR OVC002 22/22 A3001 RMK AO2 T02220222. METAR Board. Radar Display. Forecast Discussion. For situational awareness. Not to be used for flight planning purposes. Aviation Weather Center Homepage provides comprehensive user-friendly aviation weather Text products and graphics.KATL | Weather Report, METAR, TAF, Airport Data | E6BX. E6BX App is now available. Download Now: Apple Store or Android. Request Failed. TAF. Hover over text to see …KATL METAR TAF AREA METARS AREA TAFS. KATL. UTC. Hartsfield Jackson Atlanta International Airport Atlanta, Georgia, United States. METAR - Current.TAF for: KGFK (Grand Forks Intl, ND, US) issued at 0613 UTC 12 Oct 2023: Text: KGFK 120613Z 1206/1306 08009KT P6SM BKN030 : Forecast period: 0600 to 1500 UTC 12 October 2023: Forecast type: FROM: standard forecast or significant change: Winds: from the E (80 degrees) at 10 MPH (9 knots; 4.6 m/s) Visibility: 6 or more sm (10+ km) Ceiling: 3000 ...KATL - Atlanta/Hartsfield I, GA, US Issued at 0348 UTC 10 Oct 2023 Updated at 0501 UTC 10 Oct 2023 Potential Impact None Slight Moderate High NOTE: LAMP data beyond the time of the TAF data is denoted as LAMP in Type and colored magenta. Raw TAF KATL 100348Z 1004/1106 23006KT P6SM SKC FM101800 24012KT P6SM SCT250 FM110000 24006KT P6SM SCT250 KATL Tower Brief Location Help Tropical System Impacts for the East; Severe Weather and Heavy Rainfall Threats Heavy rain and dangerous surf conditions up the East Coast are forecast as tropical storm conditions approach late this week and into the weekend.Hartsfield-Jackson Atlanta International is a large airport in Georgia, United States. The airport is located at latitude 33.63662 and longitude -84.42802. The airport …NOTE: LAMP data beyond the time of the TAF data is denoted as LAMP in Type and colored magenta. Raw TAF. KMSP 210900Z 2109/2212 14006KT P6SM FEW250. FM212000 15010KT P6SM FEW250. Raw METAR.data at: 1337 utc 08 oct 2023. katl 081252z 33007kt 10sm few200 11/04 a3008 rmk ao2 slp185 t01060039 $ katl 081152z 33004kt 10sm few200 08/03 a3006 rmk ao2 slp180 t00830033 10111 20083 53010 $ katl 081127z 0812/0918 32006kt p6sm skc fm081500 32010g20kt p6sm skc fm082300 30006kt p6sm skc fm091400 23008kt p6sm skcdata at: 1600 utc 13 oct 2023. katl 131552z 10008kt 2sm -ra br ovc008 17/16 a2995 rmk ao2 slp137 vis s 1 1/2 cig 006v010 p0000 t01720156 $ katl 131554z 1316/1418 08011kt p6sm vcsh bkn008 ovc020 tempo 1316/1319 3sm -radz br ovc006 fm131900 09010kt 6sm -ra br ovc008 fm140400 06006kt 2sm -radz br bkn005 fm140800 32004kt 2sm -radz br bkn004 fm141500 27008kt p6sm bkn015METAR text: KIAH 091653Z 16007KT 10SM FEW180 FEW250 26/09 A3001 RMK AO2 SLP160 T02560094. Conditions at: KIAH (HOUSTON/INTNL , TX, US) observed 1653 UTC 09 October 2023. Temperature: 25.6°C (78°F) Dewpoint: 9.4°C (49°F) [RH = 36%] Pressure (altimeter):KATL - Atlanta/Hartsfield I, GA, US. Updated at: 2100 UTC 08 Sep 2023 Latest TAF at: 1945 UTC 08 Sep 2023. TAF Board. Time 2052Z 08/21Z 08/22Z 08/23Z 09/00Z 09/01Z 09/02Z 09/03Z 09/04Z 09/05Z 09/06Z 09/07Z 09/08Z 09/09Z>> Type: OBS: PRVL: PRVL: PRVL: PRVL: PRVL: PRVL: PRVL: PRVL: PRVL: PRVL: PRVL: PRVL: PRVL: VIS: 10 …METAR Amsterdam Airport Schiphol - EHAM/AMS. Amsterdam Airport Schiphol is a large airport in North Holland, Netherlands. The airport is located at latitude 52.31488 and longitude 4.75807. The airport has 6 runways: 18L/36R, 18C/36C, 18R/36L, 4/22, 6/24 and 9/27. The ICAO airport code of this field is EHAM.TAF for: KATL (Atlanta/Hartsfield I, GA, US) issued at 0332 UTC 15 Jun 2023: Text: KATL 150332Z 1504/1606 20007KT P6SM SCT007 BKN050 : Forecast period: 0400 to 0800 UTC 15 June 2023: Forecast type: FROM: standard forecast or significant change: Winds: from the SSW (200 degrees) at 8 MPH (7 knots; 3.6 m/s)Forecast. TAF: KATL 011720Z 0118/0224 08010KT P6SM SCT040 FM020000 08004KT P6SM FEW250 FM021500 08008KT P6SM SCT040. Weather observations and forecasts of more than 4000 airports (METAR and TAF reports). The available stations are represented by yellow and red dots on the map. Hover mouse over dot to see the name of the station.Hartsfield-Jackson Atlanta International is a large airport in Georgia, United States. The airport is located at latitude 33.63662 and longitude -84.42802. The airport has 5 runways: 9L/27R, 8R/26L, 8L/26R, 9R/27L and 10/28. The ICAO airport code of this field is KATL. The local airport ID (FAA LID) of this airport is ATL.Updated at 2326 UTC 09 Oct 2023. NOTE: LAMP data beyond the time of the TAF data is denoted as LAMP in Type and colored magenta. For situational awareness. Not to be used for flight planning purposes. Aviation Weather Center Homepage provides comprehensive user-friendly aviation weather Text products and graphics.. Hartsfield-Jackson Intl Airport (Atlanta, Gkatl 071122z 0712/0818 31006kt p6sm bkn120 fm TAF Hartsfield Jackson Atlanta International Airport KATL Atlanta, Georgia, United States ... TAF KATL 030331Z 0304/0406 07006KT P6SM SKC. Wind. 070 ...Below are listed examples for each of the data API scripts. You can also use the API builder to construct your own requests. METARs. TAFs. PIREPs. AIRMET/SIGMET. Intl SIGMET. G-AIRMET. OCONUS FAs. TAF ; NOTAM ; History ; Airport ; Statistics Forecast. TAF: KATL 011720Z 0118/0224 08010KT P6SM SCT040 FM020000 08004KT P6SM FEW250 FM021500 08008KT P6SM SCT040. Weather observations and forecasts of more than 4000 airports (METAR and TAF reports). The available stations are represented by yellow and red dots on the map. Hover mouse over dot to see the name of the station.NOTE: LAMP data beyond the time of the TAF data is denoted as LAMP in Type and colored magenta. Raw TAF KATL 291559Z 2916/3018 06006KT P6SM FEW250 FM291800 03008KT P6SM FEW040 SCT250 FM292300 04004KT P6SM SCT050 FM300100 VRB04KT P6SM FEW250 Raw METAR KATL 291652Z 04004KT 10SM FEW038 … Werden Sie uns helfen, Metar-Taf.com am Laufen zu halte...

Continue Reading